Time;durP1;ratioP1;P1;durP2;ratioP2;P2;SDS_P1;SDS_P2;PMS_P1;PMS_P2;Temp;Humidity;BMP_temperature;BMP_pressure;BME280_temperature;BME280_humidity;BME280_pressure;Samples;Min_cycle;Max_cycle;Signal;HPM_P1;HPM_P2
2023/03/03 00:00:51;;;;;;;3.88;0.80;;;-0.70;99.90;;;;;;20909678;28;20041;-64
2023/03/03 00:10:54;;;;;;;6.97;0.98;;;-0.90;99.90;;;;;;20909112;28;20463;-65
2023/03/03 00:20:59;;;;;;;2.28;0.60;;;-1.00;99.90;;;;;;20908053;28;20041;-65
2023/03/03 00:31:20;;;;;;;3.80;0.63;;;-1.10;99.90;;;;;;20907248;28;20079;-65
2023/03/03 00:41:26;;;;;;;3.33;0.55;;;-1.00;99.90;;;;;;20906428;28;20029;-65
2023/03/03 00:51:33;;;;;;;3.20;0.98;;;-0.90;99.90;;;;;;20902998;28;20083;-65
2023/03/03 01:01:34;;;;;;;1.30;0.40;;;-1.00;99.90;;;;;;20904924;28;20041;-65
2023/03/03 01:11:36;;;;;;;3.58;0.50;;;-1.10;99.90;;;;;;20902489;28;20045;-60
2023/03/03 01:21:38;;;;;;;1.30;0.50;;;-1.00;99.90;;;;;;20885837;28;20082;-65
2023/03/03 01:31:40;;;;;;;2.67;0.63;;;-1.00;99.90;;;;;;20992159;28;20047;-65
2023/03/03 01:41:42;;;;;;;4.55;0.70;;;-1.00;99.90;;;;;;20952434;28;20082;-59
2023/03/03 01:51:51;;;;;;;2.80;0.50;;;-1.10;99.90;;;;;;20918637;28;20040;-59
2023/03/03 02:01:52;;;;;;;3.63;0.68;;;-1.20;99.90;;;;;;20919181;28;20021;-65
2023/03/03 02:11:58;;;;;;;3.33;0.70;;;-1.30;99.90;;;;;;20915648;28;20040;-59
2023/03/03 02:22:01;;;;;;;2.53;0.75;;;-1.20;99.90;;;;;;20916018;28;20082;-57
2023/03/03 02:32:03;;;;;;;3.38;0.88;;;-1.20;99.90;;;;;;20913934;28;20359;-65
2023/03/03 02:42:28;;;;;;;4.53;0.93;;;-1.20;99.90;;;;;;20911913;28;20029;-65
2023/03/03 02:52:32;;;;;;;4.22;0.80;;;-1.20;99.90;;;;;;20911912;28;20037;-65
2023/03/03 03:02:34;;;;;;;7.85;0.80;;;-1.20;99.90;;;;;;20894999;28;20065;-65
2023/03/03 03:12:36;;;;;;;4.47;0.77;;;-1.10;99.90;;;;;;20912274;28;20037;-59
2023/03/03 03:22:37;;;;;;;4.40;0.60;;;-1.10;99.90;;;;;;20910299;28;20498;-65
2023/03/03 03:32:39;;;;;;;4.13;0.52;;;-1.00;99.90;;;;;;20911775;28;20037;-60
2023/03/03 03:42:41;;;;;;;2.40;0.60;;;-1.00;99.90;;;;;;20909504;28;20427;-65
2023/03/03 03:52:43;;;;;;;1.00;0.60;;;-1.00;99.90;;;;;;20909534;28;20032;-60
2023/03/03 04:02:45;;;;;;;5.57;0.75;;;-1.00;99.90;;;;;;20906556;28;20033;-65
2023/03/03 04:12:49;;;;;;;1.55;0.50;;;-0.80;99.90;;;;;;20905958;28;20079;-65
2023/03/03 04:22:52;;;;;;;4.90;0.50;;;-0.80;99.90;;;;;;20904943;28;20094;-60
2023/03/03 04:32:53;;;;;;;3.28;0.70;;;-0.80;99.90;;;;;;20905844;28;20063;-65
2023/03/03 04:42:58;;;;;;;2.97;0.52;;;-0.90;99.90;;;;;;20887499;28;20036;-65
2023/03/03 04:53:00;;;;;;;3.53;0.80;;;-0.90;99.90;;;;;;20904193;28;20094;-65
2023/03/03 05:03:02;;;;;;;2.47;0.65;;;-0.90;99.90;;;;;;20902111;28;20041;-65
2023/03/03 05:13:04;;;;;;;3.58;0.70;;;-1.00;99.90;;;;;;20902426;28;20398;-65
2023/03/03 05:23:06;;;;;;;1.95;0.63;;;-1.00;99.90;;;;;;20903237;28;20029;-65
2023/03/03 05:33:39;;;;;;;5.18;0.70;;;-1.00;99.90;;;;;;20878408;28;20033;-64
2023/03/03 05:43:42;;;;;;;1.95;0.70;;;-1.00;99.90;;;;;;20884591;28;20037;-59
2023/03/03 05:53:43;;;;;;;3.80;0.50;;;-0.80;99.90;;;;;;20901777;28;20437;-65
2023/03/03 06:03:45;;;;;;;3.80;0.93;;;-0.60;99.90;;;;;;20902028;28;20039;-60
2023/03/03 06:13:46;;;;;;;3.03;0.70;;;-0.50;99.90;;;;;;20908994;28;20119;-64
2023/03/03 06:23:48;;;;;;;3.05;0.60;;;-0.10;99.90;;;;;;20916037;28;20024;-64
2023/03/03 06:33:50;;;;;;;4.68;1.25;;;0.20;99.90;;;;;;20912889;28;20110;-60
2023/03/03 06:43:52;;;;;;;5.47;1.00;;;0.20;99.90;;;;;;20912955;28;20041;-64
2023/03/03 06:53:56;;;;;;;4.80;1.00;;;0.20;99.90;;;;;;20913362;28;20233;-64
2023/03/03 07:03:58;;;;;;;4.20;1.02;;;0.30;99.90;;;;;;20912849;28;20071;-64
2023/03/03 07:14:01;;;;;;;2.45;1.02;;;0.60;99.90;;;;;;20911651;28;20083;-64
2023/03/03 07:24:27;;;;;;;4.78;1.52;;;0.80;99.90;;;;;;20910438;28;20024;-64
2023/03/03 07:34:38;;;;;;;8.35;1.42;;;1.00;99.90;;;;;;20908299;28;20470;-66
2023/03/03 07:44:40;;;;;;;;;;;1.60;99.90;;;;;;20910375;28;20040;-56
2023/03/03 07:54:44;;;;;;;;;;;2.40;99.90;;;;;;20909004;28;19924;-66
2023/03/03 08:04:51;;;;;;;6.30;1.98;;;2.60;99.90;;;;;;20907954;28;20251;-65
2023/03/03 08:14:54;;;;;;;5.85;1.95;;;3.00;99.90;;;;;;20906938;28;20079;-59
2023/03/03 08:24:55;;;;;;;4.95;1.85;;;3.50;99.90;;;;;;20906218;28;20090;-60
2023/03/03 08:34:57;;;;;;;5.47;1.95;;;4.00;99.90;;;;;;20904802;28;20082;-58
2023/03/03 08:44:59;;;;;;;9.00;2.40;;;4.50;99.90;;;;;;20888243;28;20029;-66
2023/03/03 08:55:00;;;;;;;3.97;1.60;;;4.60;99.90;;;;;;20904537;28;20079;-57
2023/03/03 09:05:02;;;;;;;4.30;1.30;;;5.10;99.90;;;;;;20904886;28;20032;-58
2023/03/03 09:15:13;;;;;;;5.63;1.70;;;5.50;99.90;;;;;;20903769;28;20453;-55
2023/03/03 09:25:33;;;;;;;4.57;1.88;;;6.10;99.90;;;;;;20902567;28;20073;-62
2023/03/03 09:35:39;;;;;;;3.00;1.37;;;6.60;99.90;;;;;;20902344;28;20036;-62
2023/03/03 09:46:00;;;;;;;3.30;1.33;;;7.20;99.90;;;;;;20907106;28;20103;-62
2023/03/03 09:56:08;;;;;;;2.35;1.15;;;7.80;99.90;;;;;;20918099;28;20037;-63
2023/03/03 10:06:32;;;;;;;3.70;1.30;;;7.60;99.90;;;;;;20917436;28;20428;-57
2023/03/03 10:17:07;;;;;;;2.35;0.93;;;7.20;99.90;;;;;;20917091;28;20559;-61
2023/03/03 10:27:36;;;;;;;1.73;0.85;;;7.20;99.90;;;;;;20915870;28;20037;-55
2023/03/03 10:38:14;;;;;;;3.13;0.90;;;7.90;99.90;;;;;;20913391;28;20037;-54
2023/03/03 10:48:37;;;;;;;4.22;2.10;;;8.20;98.50;;;;;;20913053;28;20029;-63
2023/03/03 10:59:03;;;;;;;3.90;1.80;;;8.60;99.90;;;;;;20913310;28;20037;-56
2023/03/03 11:09:17;;;;;;;6.50;2.00;;;8.70;99.90;;;;;;20912520;28;20103;-54
2023/03/03 11:19:34;;;;;;;3.88;2.10;;;8.30;99.90;;;;;;20911800;28;20037;-64
2023/03/03 11:29:55;;;;;;;4.00;1.65;;;8.00;99.90;;;;;;20909428;28;20037;-53
2023/03/03 11:40:02;;;;;;;4.47;1.30;;;8.70;99.90;;;;;;20909991;28;20033;-53
2023/03/03 11:50:36;;;;;;;2.15;0.95;;;10.00;99.90;;;;;;20891649;28;20036;-56
2023/03/03 12:00:57;;;;;;;2.50;0.90;;;10.50;97.40;;;;;;20875772;28;20049;-55
2023/03/03 12:11:38;;;;;;;3.70;1.10;;;10.40;96.80;;;;;;20906530;28;20572;-63
2023/03/03 12:21:39;;;;;;;4.25;1.20;;;10.30;98.40;;;;;;20888666;28;20037;-57
2023/03/03 12:32:15;;;;;;;3.25;1.38;;;9.70;96.20;;;;;;20904953;28;20040;-63
2023/03/03 12:42:47;;;;;;;5.43;2.60;;;9.60;99.90;;;;;;20904015;28;20087;-62
2023/03/03 12:52:54;;;;;;;4.95;2.80;;;10.40;99.90;;;;;;20904545;28;20029;-54
2023/03/03 13:03:25;;;;;;;5.18;1.23;;;10.50;99.70;;;;;;20903963;28;20406;-63
2023/03/03 13:13:52;;;;;;;3.58;1.98;;;10.70;96.30;;;;;;20894532;28;20041;-61
2023/03/03 13:24:10;;;;;;;5.80;4.00;;;10.20;97.30;;;;;;20902262;28;20029;-63
2023/03/03 13:34:38;;;;;;;11.20;5.10;;;10.50;99.90;;;;;;20903435;28;20033;-63
2023/03/03 13:44:45;;;;;;;8.32;5.50;;;9.80;99.90;;;;;;20902105;28;20111;-63
2023/03/03 13:55:31;;;;;;;14.85;6.60;;;9.50;99.90;;;;;;20901719;28;20495;-63
2023/03/03 14:05:49;;;;;;;11.30;6.65;;;9.20;99.90;;;;;;20892406;28;20557;-56
2023/03/03 14:16:08;;;;;;;9.63;6.93;;;9.10;99.90;;;;;;20899672;28;20049;-57
2023/03/03 14:26:11;;;;;;;15.43;8.63;;;9.10;99.90;;;;;;20900895;28;20040;-59
2023/03/03 14:36:15;;;;;;;11.38;8.43;;;9.00;99.90;;;;;;20910839;28;20025;-57
2023/03/03 14:46:29;;;;;;;13.40;9.23;;;8.60;99.90;;;;;;20914588;28;20029;-63
2023/03/03 14:56:35;;;;;;;16.08;10.27;;;8.70;99.90;;;;;;20913997;28;20071;-63
2023/03/03 15:06:48;;;;;;;16.05;10.15;;;8.70;99.90;;;;;;20913912;28;20445;-57
2023/03/03 15:16:50;;;;;;;16.33;10.10;;;7.70;99.90;;;;;;20912232;28;20560;-64
2023/03/03 15:27:03;;;;;;;16.33;10.95;;;6.90;99.90;;;;;;20911486;28;20037;-64
2023/03/03 15:37:48;;;;;;;18.98;11.15;;;6.50;99.90;;;;;;20909551;28;20097;-64
2023/03/03 15:48:14;;;;;;;15.68;10.77;;;6.60;99.90;;;;;;20910841;28;20382;-57
2023/03/03 15:58:37;;;;;;;15.77;10.35;;;6.50;99.90;;;;;;20909154;28;20570;-65
2023/03/03 16:08:45;;;;;;;16.80;9.35;;;6.10;99.90;;;;;;20907181;28;20035;-58
2023/03/03 16:19:09;;;;;;;12.52;8.82;;;5.60;99.90;;;;;;20906144;28;20045;-65
2023/03/03 16:29:25;;;;;;;13.75;8.88;;;5.20;99.90;;;;;;20904925;28;20025;-57
2023/03/03 16:39:33;;;;;;;18.55;11.38;;;4.60;99.90;;;;;;20903677;28;20028;-60
2023/03/03 16:49:58;;;;;;;21.17;11.45;;;3.70;99.90;;;;;;20903892;28;20037;-66
2023/03/03 17:00:22;;;;;;;24.90;13.50;;;2.90;99.90;;;;;;20902422;28;20082;-67
2023/03/03 17:10:36;;;;;;;21.95;13.00;;;2.20;99.90;;;;;;20903868;28;20783;-59
2023/03/03 17:20:47;;;;;;;23.63;11.50;;;1.90;99.90;;;;;;20901908;28;20106;-59
2023/03/03 17:31:07;;;;;;;8.90;5.07;;;1.70;99.90;;;;;;20825654;28;20029;-59
2023/03/03 17:41:14;;;;;;;11.98;6.25;;;1.50;99.90;;;;;;20937581;28;20099;-60
2023/03/03 17:51:34;;;;;;;12.10;6.47;;;1.40;99.90;;;;;;20901585;28;20036;-59
2023/03/03 18:01:36;;;;;;;13.83;8.20;;;1.30;99.90;;;;;;20901609;28;20067;-67
2023/03/03 18:12:05;;;;;;;12.93;6.85;;;1.10;99.90;;;;;;20912232;28;20045;-59
2023/03/03 18:22:16;;;;;;;3.15;0.90;;;0.90;99.90;;;;;;20915235;28;20059;-67
2023/03/03 18:32:21;;;;;;;9.97;5.70;;;0.90;99.90;;;;;;20916961;28;20032;-66
2023/03/03 18:42:24;;;;;;;12.90;6.18;;;0.90;99.90;;;;;;20914784;28;20032;-60
2023/03/03 18:52:31;;;;;;;16.80;7.20;;;1.20;99.90;;;;;;20914164;28;20037;-66
2023/03/03 19:02:37;;;;;;;16.00;6.70;;;1.00;99.90;;;;;;20913429;28;20035;-66
2023/03/03 19:12:55;;;;;;;30.85;13.32;;;0.90;99.90;;;;;;20912449;28;20049;-59
2023/03/03 19:23:06;;;;;;;23.15;10.65;;;0.90;99.90;;;;;;20892783;28;20032;-59
2023/03/03 19:33:40;;;;;;;20.10;10.33;;;1.00;99.90;;;;;;20911123;28;20473;-59
2023/03/03 19:43:51;;;;;;;15.85;9.68;;;1.20;99.90;;;;;;20908586;28;20416;-59
2023/03/03 19:54:33;;;;;;;19.30;10.67;;;1.40;99.90;;;;;;20909423;28;20394;-59
2023/03/03 20:05:27;;;;;;;16.38;9.13;;;1.60;99.90;;;;;;20890824;28;20118;-59
2023/03/03 20:15:50;;;;;;;15.80;8.27;;;1.80;99.90;;;;;;20899022;28;20045;-59
2023/03/03 20:26:18;;;;;;;13.25;6.85;;;1.90;99.90;;;;;;20900617;28;20052;-66
2023/03/03 20:36:51;;;;;;;5.28;3.10;;;2.00;99.90;;;;;;20905694;28;20029;-59
2023/03/03 20:47:41;;;;;;;7.75;1.98;;;2.20;99.90;;;;;;20903994;28;20037;-59
2023/03/03 20:58:06;;;;;;;4.22;1.63;;;2.30;99.90;;;;;;20895650;28;20587;-59
2023/03/03 21:08:08;;;;;;;6.72;2.45;;;2.30;99.90;;;;;;20902350;28;20055;-58
2023/03/03 21:18:23;;;;;;;5.28;2.25;;;2.30;99.90;;;;;;20903402;28;20095;-59
2023/03/03 21:28:30;;;;;;;6.90;2.30;;;2.20;99.90;;;;;;20903698;28;20049;-65
2023/03/03 21:38:33;;;;;;;5.85;2.40;;;2.00;99.90;;;;;;20903126;28;20098;-58
2023/03/03 21:48:40;;;;;;;10.27;2.58;;;1.80;99.90;;;;;;20919042;28;20037;-59
2023/03/03 21:58:42;;;;;;;6.65;2.55;;;1.70;99.90;;;;;;20918345;28;20033;-59
2023/03/03 22:08:43;;;;;;;8.13;3.80;;;1.70;99.90;;;;;;20917803;28;20552;-58
2023/03/03 22:18:45;;;;;;;7.13;2.75;;;2.00;99.90;;;;;;20916747;28;20049;-59
2023/03/03 22:28:48;;;;;;;7.47;2.85;;;2.10;99.90;;;;;;20915904;28;20036;-59
2023/03/03 22:38:49;;;;;;;12.27;4.60;;;1.90;99.90;;;;;;20915175;28;20028;-59
2023/03/03 22:48:51;;;;;;;6.70;1.88;;;1.90;99.90;;;;;;20914489;28;20036;-58
2023/03/03 22:58:53;;;;;;;5.97;1.83;;;1.90;99.90;;;;;;20912318;28;20079;-64
2023/03/03 23:08:54;;;;;;;9.40;3.33;;;1.60;99.90;;;;;;20913044;28;20033;-66
2023/03/03 23:18:56;;;;;;;8.13;3.85;;;1.50;99.90;;;;;;20912465;28;20021;-66
2023/03/03 23:29:00;;;;;;;8.45;3.38;;;1.40;99.90;;;;;;20911647;28;20025;-58
2023/03/03 23:39:02;;;;;;;7.20;1.50;;;1.20;99.90;;;;;;20910128;28;20055;-65
2023/03/03 23:49:04;;;;;;;4.15;1.00;;;1.20;99.90;;;;;;20908581;28;20036;-66
2023/03/03 23:59:05;;;;;;;12.52;2.58;;;1.40;99.90;;;;;;20909054;28;20386;-58
